Cuneo / Levaldigi Airport LIMZ

Flugplatz Daten

Name: Cuneo / Levaldigi Airport

Ident: LIMZ

Lat: 44,54700089

Long: 7,623219967

Platzhöhe: 1267 ft

IataCode: CUF

City: Cuneo

Homepage: http://www.aeroporto.cuneo.it/

Metar

2022/08/13 16:50
LIMZ 131650Z AUTO VRB02KT 9999 NCD 27/13 Q1013

Taf

2022/08/13 12:21
TAF LIMZ 131100Z 1312/1412 VRB05KT CAVOK
Gewünschte Webcam nicht vorhanden? Dann fügen Sie eine hinzu. Sie wird dann so schnell wie möglich freigeschaltet
Url: Title: